Agia Varvara — SX4706 — position and weather

sailwx.info

Track history (hours):
 
Tides and Currents Weather Stations Pressure Air Temp Water Temp Dewpoint Dewpoint Depression Visibility Wind Speed Wind Dir Waves Ship Positions

Agia Varvara

Last reported at 2015-Oct-29 11:27 UTC. Time now 2016-Feb-13 17:20 UTC.
Position N 37°54' E 023°07'.
Warning: this ship's position is months out of date.

Length 88 m; draft 1.5 m.

Type: Passenger vessel. MMSI: 237358800.

Date/timePositionNaut miles runAvg speedWind from/ knotsBaromVisibWave heightAir tempDewpointWater temp
2015-Oct-29 11:27N 37°54' E 023°07'7 7.6
2015-Oct-29 10:33N 37°53' E 023°16'7 7.4
2015-Oct-29 09:33N 37°52' E 023°25'7 7.3
2015-Oct-29 08:33N 37°55' E 023°34'3 3.1
2015-Oct-29 07:33N 37°58' E 023°32'0 0.0
2015-Oct-27 23:33N 37°58' E 023°32'1 1.1
2015-Oct-27 22:33N 37°58' E 023°33'1 1.2
2015-Oct-27 21:33N 37°58' E 023°32'1 0.9
2015-Oct-27 20:34N 37°58' E 023°33'1 1.0
2015-Oct-27 19:34N 37°58' E 023°32'0 0.0
2015-Oct-27 14:17N 37°58' E 023°32'0 0.0
2015-Oct-27 13:34N 37°58' E 023°32'1 1.2
2015-Oct-27 12:33N 37°58' E 023°33'1 1.1
2015-Oct-27 11:33N 37°58' E 023°32'1 1.2
2015-Oct-27 10:33N 37°58' E 023°33'1 1.2
2015-Oct-27 09:33N 37°58' E 023°32'0 0.3
2015-Oct-27 08:33N 37°58' E 023°32'1 1.1
2015-Oct-27 07:33N 37°58' E 023°33'1 1.2
2015-Oct-27 06:33N 37°58' E 023°32'0 0.1
2015-Oct-27 05:33N 37°58' E 023°32'1 1.1
2015-Oct-27 04:34N 37°58' E 023°33'1 1.2
2015-Oct-27 03:33N 37°58' E 023°32'0 0.0
2015-Oct-26 19:33N 37°58' E 023°32'1 1.2
2015-Oct-26 18:33N 37°58' E 023°33'0 0.2
2015-Oct-26 17:33N 37°58' E 023°33'1 1.2
2015-Oct-26 16:33N 37°58' E 023°32'1 1.2
2015-Oct-26 15:33N 37°58' E 023°33'0 0.0
2015-Oct-26 14:33N 37°58' E 023°33'1 1.2
2015-Oct-26 13:33N 37°58' E 023°32'0 0.3
2015-Oct-26 12:33N 37°58' E 023°32'1 1.1
2015-Oct-26 11:33N 37°58' E 023°33'1 1.4
2015-Oct-26 10:33N 37°58' E 023°32'0 0.0
2015-Oct-25 15:20N 37°58' E 023°32'0 0.2
2015-Oct-25 14:33N 37°58' E 023°32'1 1.3
2015-Oct-25 13:33N 37°58' E 023°33'0 0.0
2015-Oct-25 12:33N 37°58' E 023°33'1 1.3
2015-Oct-25 11:33N 37°58' E 023°32'1 1.2
2015-Oct-25 10:32N 37°58' E 023°33'0 0.1
2015-Oct-25 09:33N 37°58' E 023°33'1 1.2
2015-Oct-25 08:33N 37°58' E 023°32'1 1.2
2015-Oct-25 07:31N 37°58' E 023°33'0 0.2
2015-Oct-25 06:33N 37°58' E 023°33'1 0.1
2015-Oct-24 20:33N 37°58' E 023°32'0 0.1
2015-Oct-24 19:33N 37°58' E 023°32'1 0.7
2015-Oct-24 18:34N 37°58' E 023°33'1 0.6
2015-Oct-24 17:33N 37°58' E 023°33'0 0.1
2015-Oct-24 16:33N 37°58' E 023°33'1 1.1
2015-Oct-24 15:33N 37°58' E 023°32'0 0.1
2015-Oct-24 14:33N 37°58' E 023°32'1 1.2
2015-Oct-24 13:33N 37°58' E 023°33'0 0.1
2015-Oct-24 12:34N 37°58' E 023°33'  
2015-Oct-21 21:34N 37°58' E 023°32'1 1.1
2015-Oct-21 20:33N 37°58' E 023°33'1 1.2
2015-Oct-21 19:33N 37°58' E 023°32'0 0.1
2015-Oct-21 18:33N 37°58' E 023°32'0 0.0
2015-Oct-21 11:33N 37°58' E 023°32'1 1.2
2015-Oct-21 10:33N 37°58' E 023°33'0 0.1
2015-Oct-21 09:33N 37°58' E 023°33'0 0.1
2015-Oct-21 08:34N 37°58' E 023°33'0 0.1
2015-Oct-21 07:33N 37°58' E 023°33'1 1.2
2015-Oct-21 06:33N 37°58' E 023°32'1 1.2
2015-Oct-21 05:34N 37°58' E 023°33'0 0.1
2015-Oct-21 04:33N 37°58' E 023°33'1 1.2
2015-Oct-21 03:33N 37°58' E 023°32'0 0.0
2015-Oct-20 19:22N 37°58' E 023°32'1 1.5
2015-Oct-20 18:33N 37°58' E 023°33'0 0.2
2015-Oct-20 17:34N 37°58' E 023°33'1 1.1
2015-Oct-20 16:33N 37°58' E 023°32'1 1.2
2015-Oct-20 15:33N 37°58' E 023°33'0 0.2
2015-Oct-20 14:33N 37°58' E 023°33'1 1.1
2015-Oct-20 13:30N 37°58' E 023°32'1 1.2
2015-Oct-20 12:31N 37°58' E 023°33'0 0.0
2015-Oct-20 11:33N 37°58' E 023°33'1 1.2
2015-Oct-20 10:33N 37°58' E 023°32'0 0.2
2015-Oct-20 09:33N 37°58' E 023°32'0 0.0
2015-Oct-19 12:07N 37°58' E 023°32'0 0.4
2015-Oct-19 11:33N 37°58' E 023°32'  
Track history (hours):
 
Tides and Currents Weather Stations Pressure Air Temp Water Temp Dewpoint Dewpoint Depression Visibility Wind Speed Wind Dir Waves Ship Positions

Agia Varvara

Last reported at 2015-Oct-29 11:27 UTC. Time now 2016-Feb-13 17:20 UTC.
Position N 37°54' E 023°07'.
Warning: this ship's position is months out of date.

Length 88 m; draft 1.5 m.

Type: Passenger vessel. MMSI: 237358800.

Date/timePositionNaut miles runAvg speedWind from/ knotsBaromVisibWave heightAir tempDewpointWater temp
2015-Oct-29 11:27N 37°54' E 023°07'7 7.6
2015-Oct-29 10:33N 37°53' E 023°16'7 7.4
2015-Oct-29 09:33N 37°52' E 023°25'7 7.3
2015-Oct-29 08:33N 37°55' E 023°34'3 3.1
2015-Oct-29 07:33N 37°58' E 023°32'0 0.0
2015-Oct-27 23:33N 37°58' E 023°32'1 1.1
2015-Oct-27 22:33N 37°58' E 023°33'1 1.2
2015-Oct-27 21:33N 37°58' E 023°32'1 0.9
2015-Oct-27 20:34N 37°58' E 023°33'1 1.0
2015-Oct-27 19:34N 37°58' E 023°32'0 0.0
2015-Oct-27 14:17N 37°58' E 023°32'0 0.0
2015-Oct-27 13:34N 37°58' E 023°32'1 1.2
2015-Oct-27 12:33N 37°58' E 023°33'1 1.1
2015-Oct-27 11:33N 37°58' E 023°32'1 1.2
2015-Oct-27 10:33N 37°58' E 023°33'1 1.2
2015-Oct-27 09:33N 37°58' E 023°32'0 0.3
2015-Oct-27 08:33N 37°58' E 023°32'1 1.1
2015-Oct-27 07:33N 37°58' E 023°33'1 1.2
2015-Oct-27 06:33N 37°58' E 023°32'0 0.1
2015-Oct-27 05:33N 37°58' E 023°32'1 1.1
2015-Oct-27 04:34N 37°58' E 023°33'1 1.2
2015-Oct-27 03:33N 37°58' E 023°32'0 0.0
2015-Oct-26 19:33N 37°58' E 023°32'1 1.2
2015-Oct-26 18:33N 37°58' E 023°33'0 0.2
2015-Oct-26 17:33N 37°58' E 023°33'1 1.2
2015-Oct-26 16:33N 37°58' E 023°32'1 1.2
2015-Oct-26 15:33N 37°58' E 023°33'0 0.0
2015-Oct-26 14:33N 37°58' E 023°33'1 1.2
2015-Oct-26 13:33N 37°58' E 023°32'0 0.3
2015-Oct-26 12:33N 37°58' E 023°32'1 1.1
2015-Oct-26 11:33N 37°58' E 023°33'1 1.4
2015-Oct-26 10:33N 37°58' E 023°32'0 0.0
2015-Oct-25 15:20N 37°58' E 023°32'0 0.2
2015-Oct-25 14:33N 37°58' E 023°32'1 1.3
2015-Oct-25 13:33N 37°58' E 023°33'0 0.0
2015-Oct-25 12:33N 37°58' E 023°33'1 1.3
2015-Oct-25 11:33N 37°58' E 023°32'1 1.2
2015-Oct-25 10:32N 37°58' E 023°33'0 0.1
2015-Oct-25 09:33N 37°58' E 023°33'1 1.2
2015-Oct-25 08:33N 37°58' E 023°32'1 1.2
2015-Oct-25 07:31N 37°58' E 023°33'0 0.2
2015-Oct-25 06:33N 37°58' E 023°33'1 0.1
2015-Oct-24 20:33N 37°58' E 023°32'0 0.1
2015-Oct-24 19:33N 37°58' E 023°32'1 0.7
2015-Oct-24 18:34N 37°58' E 023°33'1 0.6
2015-Oct-24 17:33N 37°58' E 023°33'0 0.1
2015-Oct-24 16:33N 37°58' E 023°33'1 1.1
2015-Oct-24 15:33N 37°58' E 023°32'0 0.1
2015-Oct-24 14:33N 37°58' E 023°32'1 1.2
2015-Oct-24 13:33N 37°58' E 023°33'0 0.1
2015-Oct-24 12:34N 37°58' E 023°33'  
2015-Oct-21 21:34N 37°58' E 023°32'1 1.1
2015-Oct-21 20:33N 37°58' E 023°33'1 1.2
2015-Oct-21 19:33N 37°58' E 023°32'0 0.1
2015-Oct-21 18:33N 37°58' E 023°32'0 0.0
2015-Oct-21 11:33N 37°58' E 023°32'1 1.2
2015-Oct-21 10:33N 37°58' E 023°33'0 0.1
2015-Oct-21 09:33N 37°58' E 023°33'0 0.1
2015-Oct-21 08:34N 37°58' E 023°33'0 0.1
2015-Oct-21 07:33N 37°58' E 023°33'1 1.2
2015-Oct-21 06:33N 37°58' E 023°32'1 1.2
2015-Oct-21 05:34N 37°58' E 023°33'0 0.1
2015-Oct-21 04:33N 37°58' E 023°33'1 1.2
2015-Oct-21 03:33N 37°58' E 023°32'0 0.0
2015-Oct-20 19:22N 37°58' E 023°32'1 1.5
2015-Oct-20 18:33N 37°58' E 023°33'0 0.2
2015-Oct-20 17:34N 37°58' E 023°33'1 1.1
2015-Oct-20 16:33N 37°58' E 023°32'1 1.2
2015-Oct-20 15:33N 37°58' E 023°33'0 0.2
2015-Oct-20 14:33N 37°58' E 023°33'1 1.1
2015-Oct-20 13:30N 37°58' E 023°32'1 1.2
2015-Oct-20 12:31N 37°58' E 023°33'0 0.0
2015-Oct-20 11:33N 37°58' E 023°33'1 1.2
2015-Oct-20 10:33N 37°58' E 023°32'0 0.2
2015-Oct-20 09:33N 37°58' E 023°32'0 0.0
2015-Oct-19 12:07N 37°58' E 023°32'0 0.4
2015-Oct-19 11:33N 37°58' E 023°32'  

Dump ship's entire track history